sensor_id;sensor_type;location;lat;lon;timestamp;P1;durP1;ratioP1;P2;durP2;ratioP2
18501;SDS011;68437;52.236;5.710;2023-09-30T00:01:57;23.27;;;7.57;;
18501;SDS011;68437;52.236;5.710;2023-09-30T00:04:24;22.40;;;7.63;;
18501;SDS011;68437;52.236;5.710;2023-09-30T00:06:52;27.13;;;8.63;;
18501;SDS011;68437;52.236;5.710;2023-09-30T00:09:20;21.13;;;7.80;;
18501;SDS011;68437;52.236;5.710;2023-09-30T00:11:47;22.70;;;7.47;;
18501;SDS011;68437;52.236;5.710;2023-09-30T00:14:14;27.05;;;8.25;;
18501;SDS011;68437;52.236;5.710;2023-09-30T00:16:42;32.67;;;8.75;;
18501;SDS011;68437;52.236;5.710;2023-09-30T00:19:09;26.67;;;8.20;;
18501;SDS011;68437;52.236;5.710;2023-09-30T00:21:36;21.92;;;7.88;;
18501;SDS011;68437;52.236;5.710;2023-09-30T00:24:03;26.60;;;7.85;;
18501;SDS011;68437;52.236;5.710;2023-09-30T00:26:31;19.17;;;7.97;;
18501;SDS011;68437;52.236;5.710;2023-09-30T00:28:58;21.30;;;7.80;;
18501;SDS011;68437;52.236;5.710;2023-09-30T00:31:25;27.20;;;8.23;;
18501;SDS011;68437;52.236;5.710;2023-09-30T00:33:52;24.15;;;8.43;;
18501;SDS011;68437;52.236;5.710;2023-09-30T00:36:19;26.55;;;8.60;;
18501;SDS011;68437;52.236;5.710;2023-09-30T00:38:46;25.55;;;9.32;;
18501;SDS011;68437;52.236;5.710;2023-09-30T00:41:13;25.08;;;8.35;;
18501;SDS011;68437;52.236;5.710;2023-09-30T00:43:41;29.35;;;8.63;;
18501;SDS011;68437;52.236;5.710;2023-09-30T00:46:13;21.42;;;8.07;;
18501;SDS011;68437;52.236;5.710;2023-09-30T00:48:46;19.15;;;7.75;;
18501;SDS011;68437;52.236;5.710;2023-09-30T00:51:13;24.85;;;8.45;;
18501;SDS011;68437;52.236;5.710;2023-09-30T00:53:41;20.15;;;7.60;;
18501;SDS011;68437;52.236;5.710;2023-09-30T00:56:08;20.58;;;7.55;;
18501;SDS011;68437;52.236;5.710;2023-09-30T00:58:36;25.48;;;8.60;;
18501;SDS011;68437;52.236;5.710;2023-09-30T01:01:05;19.55;;;8.55;;
18501;SDS011;68437;52.236;5.710;2023-09-30T01:03:33;26.38;;;8.32;;
18501;SDS011;68437;52.236;5.710;2023-09-30T01:06:00;17.00;;;8.35;;
18501;SDS011;68437;52.236;5.710;2023-09-30T01:08:27;29.35;;;8.40;;
18501;SDS011;68437;52.236;5.710;2023-09-30T01:10:54;25.65;;;8.15;;
18501;SDS011;68437;52.236;5.710;2023-09-30T01:13:21;23.50;;;7.85;;
18501;SDS011;68437;52.236;5.710;2023-09-30T01:15:49;22.88;;;8.60;;
18501;SDS011;68437;52.236;5.710;2023-09-30T01:18:17;25.60;;;8.68;;
18501;SDS011;68437;52.236;5.710;2023-09-30T01:20:43;26.60;;;8.77;;
18501;SDS011;68437;52.236;5.710;2023-09-30T01:23:12;27.23;;;9.25;;
18501;SDS011;68437;52.236;5.710;2023-09-30T01:25:38;24.70;;;8.88;;
18501;SDS011;68437;52.236;5.710;2023-09-30T01:28:07;27.42;;;9.32;;
18501;SDS011;68437;52.236;5.710;2023-09-30T01:30:35;25.02;;;8.98;;
18501;SDS011;68437;52.236;5.710;2023-09-30T01:33:02;25.30;;;9.50;;
18501;SDS011;68437;52.236;5.710;2023-09-30T01:35:29;28.50;;;9.43;;
18501;SDS011;68437;52.236;5.710;2023-09-30T01:37:56;24.33;;;9.07;;
18501;SDS011;68437;52.236;5.710;2023-09-30T01:40:24;28.13;;;10.25;;
18501;SDS011;68437;52.236;5.710;2023-09-30T01:42:51;25.90;;;9.63;;
18501;SDS011;68437;52.236;5.710;2023-09-30T01:45:17;26.35;;;9.63;;
18501;SDS011;68437;52.236;5.710;2023-09-30T01:47:44;30.42;;;9.52;;
18501;SDS011;68437;52.236;5.710;2023-09-30T01:50:11;25.60;;;9.15;;
18501;SDS011;68437;52.236;5.710;2023-09-30T01:52:38;24.90;;;9.80;;
18501;SDS011;68437;52.236;5.710;2023-09-30T01:55:04;28.42;;;10.05;;
18501;SDS011;68437;52.236;5.710;2023-09-30T01:57:33;29.15;;;9.65;;
18501;SDS011;68437;52.236;5.710;2023-09-30T02:00:00;25.58;;;9.88;;
18501;SDS011;68437;52.236;5.710;2023-09-30T02:02:27;26.58;;;9.73;;
18501;SDS011;68437;52.236;5.710;2023-09-30T02:04:53;23.83;;;8.98;;
18501;SDS011;68437;52.236;5.710;2023-09-30T02:07:20;25.40;;;9.73;;
18501;SDS011;68437;52.236;5.710;2023-09-30T02:09:47;24.25;;;8.85;;
18501;SDS011;68437;52.236;5.710;2023-09-30T02:12:14;22.70;;;9.48;;
18501;SDS011;68437;52.236;5.710;2023-09-30T02:14:42;26.00;;;9.23;;
18501;SDS011;68437;52.236;5.710;2023-09-30T02:17:11;28.30;;;10.32;;
18501;SDS011;68437;52.236;5.710;2023-09-30T02:19:38;26.83;;;10.23;;
18501;SDS011;68437;52.236;5.710;2023-09-30T02:22:05;27.38;;;10.25;;
18501;SDS011;68437;52.236;5.710;2023-09-30T02:24:32;28.27;;;9.82;;
18501;SDS011;68437;52.236;5.710;2023-09-30T02:26:59;22.25;;;9.73;;
18501;SDS011;68437;52.236;5.710;2023-09-30T02:29:25;25.38;;;9.50;;
18501;SDS011;68437;52.236;5.710;2023-09-30T02:31:54;21.92;;;10.18;;
18501;SDS011;68437;52.236;5.710;2023-09-30T02:34:21;26.30;;;10.10;;
18501;SDS011;68437;52.236;5.710;2023-09-30T02:36:49;23.15;;;9.98;;
18501;SDS011;68437;52.236;5.710;2023-09-30T02:39:16;27.88;;;11.27;;
18501;SDS011;68437;52.236;5.710;2023-09-30T02:41:43;25.45;;;9.85;;
18501;SDS011;68437;52.236;5.710;2023-09-30T02:44:10;25.27;;;10.18;;
18501;SDS011;68437;52.236;5.710;2023-09-30T02:46:37;24.73;;;10.00;;
18501;SDS011;68437;52.236;5.710;2023-09-30T02:49:05;25.65;;;10.38;;
18501;SDS011;68437;52.236;5.710;2023-09-30T02:51:32;28.98;;;10.05;;
18501;SDS011;68437;52.236;5.710;2023-09-30T02:53:59;23.13;;;9.68;;
18501;SDS011;68437;52.236;5.710;2023-09-30T02:56:26;24.90;;;9.25;;
18501;SDS011;68437;52.236;5.710;2023-09-30T02:58:55;23.50;;;10.02;;
18501;SDS011;68437;52.236;5.710;2023-09-30T03:01:22;23.75;;;10.30;;
18501;SDS011;68437;52.236;5.710;2023-09-30T03:03:49;28.70;;;10.25;;
18501;SDS011;68437;52.236;5.710;2023-09-30T03:06:17;24.77;;;10.38;;
18501;SDS011;68437;52.236;5.710;2023-09-30T03:08:44;31.65;;;11.27;;
18501;SDS011;68437;52.236;5.710;2023-09-30T03:11:11;28.00;;;11.73;;
18501;SDS011;68437;52.236;5.710;2023-09-30T03:13:39;26.70;;;9.95;;
18501;SDS011;68437;52.236;5.710;2023-09-30T03:16:07;25.27;;;9.60;;
18501;SDS011;68437;52.236;5.710;2023-09-30T03:18:34;22.05;;;10.60;;
18501;SDS011;68437;52.236;5.710;2023-09-30T03:21:01;25.40;;;11.15;;
18501;SDS011;68437;52.236;5.710;2023-09-30T03:23:34;33.53;;;11.52;;
18501;SDS011;68437;52.236;5.710;2023-09-30T03:26:03;26.02;;;11.38;;
18501;SDS011;68437;52.236;5.710;2023-09-30T03:28:33;29.75;;;10.82;;
18501;SDS011;68437;52.236;5.710;2023-09-30T03:31:00;25.42;;;11.25;;
18501;SDS011;68437;52.236;5.710;2023-09-30T03:33:28;25.85;;;10.88;;
18501;SDS011;68437;52.236;5.710;2023-09-30T03:35:55;34.35;;;12.35;;
18501;SDS011;68437;52.236;5.710;2023-09-30T03:38:23;30.20;;;12.25;;
18501;SDS011;68437;52.236;5.710;2023-09-30T03:40:52;27.50;;;11.07;;
18501;SDS011;68437;52.236;5.710;2023-09-30T03:43:19;29.42;;;12.48;;
18501;SDS011;68437;52.236;5.710;2023-09-30T03:45:48;28.73;;;11.93;;
18501;SDS011;68437;52.236;5.710;2023-09-30T03:48:15;29.60;;;11.68;;
18501;SDS011;68437;52.236;5.710;2023-09-30T03:50:43;26.15;;;11.73;;
18501;SDS011;68437;52.236;5.710;2023-09-30T03:53:10;26.30;;;12.00;;
18501;SDS011;68437;52.236;5.710;2023-09-30T03:55:37;29.15;;;11.85;;
18501;SDS011;68437;52.236;5.710;2023-09-30T03:58:05;27.80;;;13.02;;
18501;SDS011;68437;52.236;5.710;2023-09-30T04:00:32;30.30;;;12.90;;
18501;SDS011;68437;52.236;5.710;2023-09-30T04:03:00;31.48;;;12.60;;
18501;SDS011;68437;52.236;5.710;2023-09-30T04:05:28;38.25;;;12.93;;
18501;SDS011;68437;52.236;5.710;2023-09-30T04:07:57;29.65;;;12.40;;
18501;SDS011;68437;52.236;5.710;2023-09-30T04:10:23;29.50;;;11.90;;
18501;SDS011;68437;52.236;5.710;2023-09-30T04:12:50;26.48;;;11.88;;
18501;SDS011;68437;52.236;5.710;2023-09-30T04:15:19;31.92;;;13.27;;
18501;SDS011;68437;52.236;5.710;2023-09-30T04:17:47;32.45;;;13.95;;
18501;SDS011;68437;52.236;5.710;2023-09-30T04:20:14;32.83;;;14.48;;
18501;SDS011;68437;52.236;5.710;2023-09-30T04:22:46;33.10;;;14.63;;
18501;SDS011;68437;52.236;5.710;2023-09-30T04:25:14;34.20;;;14.73;;
18501;SDS011;68437;52.236;5.710;2023-09-30T04:27:42;41.28;;;16.08;;
18501;SDS011;68437;52.236;5.710;2023-09-30T04:30:09;32.95;;;13.60;;
18501;SDS011;68437;52.236;5.710;2023-09-30T04:32:38;28.60;;;14.00;;
18501;SDS011;68437;52.236;5.710;2023-09-30T04:35:05;32.97;;;14.70;;
18501;SDS011;68437;52.236;5.710;2023-09-30T04:37:34;32.42;;;14.73;;
18501;SDS011;68437;52.236;5.710;2023-09-30T04:40:02;32.88;;;14.82;;
18501;SDS011;68437;52.236;5.710;2023-09-30T04:42:32;30.30;;;13.88;;
18501;SDS011;68437;52.236;5.710;2023-09-30T04:45:01;31.65;;;14.45;;
18501;SDS011;68437;52.236;5.710;2023-09-30T04:47:31;28.70;;;13.85;;
18501;SDS011;68437;52.236;5.710;2023-09-30T04:49:59;32.92;;;14.65;;
18501;SDS011;68437;52.236;5.710;2023-09-30T04:52:29;37.70;;;15.80;;
18501;SDS011;68437;52.236;5.710;2023-09-30T04:54:56;35.05;;;15.48;;
18501;SDS011;68437;52.236;5.710;2023-09-30T04:57:25;33.05;;;15.65;;
18501;SDS011;68437;52.236;5.710;2023-09-30T04:59:51;31.35;;;14.38;;
18501;SDS011;68437;52.236;5.710;2023-09-30T05:02:18;32.92;;;15.35;;
18501;SDS011;68437;52.236;5.710;2023-09-30T05:04:45;33.35;;;14.90;;
18501;SDS011;68437;52.236;5.710;2023-09-30T05:07:13;32.92;;;15.10;;
18501;SDS011;68437;52.236;5.710;2023-09-30T05:09:40;36.28;;;16.67;;
18501;SDS011;68437;52.236;5.710;2023-09-30T05:12:08;37.67;;;16.20;;
18501;SDS011;68437;52.236;5.710;2023-09-30T05:14:36;33.35;;;16.35;;
18501;SDS011;68437;52.236;5.710;2023-09-30T05:17:03;42.85;;;16.63;;
18501;SDS011;68437;52.236;5.710;2023-09-30T05:19:30;35.25;;;16.00;;
18501;SDS011;68437;52.236;5.710;2023-09-30T05:21:58;36.50;;;15.70;;
18501;SDS011;68437;52.236;5.710;2023-09-30T05:24:27;35.60;;;17.60;;
18501;SDS011;68437;52.236;5.710;2023-09-30T05:26:54;33.60;;;17.45;;
18501;SDS011;68437;52.236;5.710;2023-09-30T05:29:21;36.50;;;16.77;;
18501;SDS011;68437;52.236;5.710;2023-09-30T05:31:47;38.28;;;17.10;;
18501;SDS011;68437;52.236;5.710;2023-09-30T05:34:14;40.72;;;18.45;;
18501;SDS011;68437;52.236;5.710;2023-09-30T05:36:41;41.15;;;18.50;;
18501;SDS011;68437;52.236;5.710;2023-09-30T05:39:08;41.88;;;19.67;;
18501;SDS011;68437;52.236;5.710;2023-09-30T05:41:38;42.00;;;18.38;;
18501;SDS011;68437;52.236;5.710;2023-09-30T05:44:07;42.22;;;18.45;;
18501;SDS011;68437;52.236;5.710;2023-09-30T05:46:34;40.45;;;18.60;;
18501;SDS011;68437;52.236;5.710;2023-09-30T05:49:00;40.03;;;18.45;;
18501;SDS011;68437;52.236;5.710;2023-09-30T05:51:34;43.17;;;19.65;;
18501;SDS011;68437;52.236;5.710;2023-09-30T05:54:01;45.30;;;19.38;;
18501;SDS011;68437;52.236;5.710;2023-09-30T05:56:30;39.65;;;18.33;;
18501;SDS011;68437;52.236;5.710;2023-09-30T05:58:59;46.88;;;20.60;;
18501;SDS011;68437;52.236;5.710;2023-09-30T06:01:26;40.90;;;19.75;;
18501;SDS011;68437;52.236;5.710;2023-09-30T06:03:53;39.83;;;19.92;;
18501;SDS011;68437;52.236;5.710;2023-09-30T06:06:20;52.97;;;20.95;;
18501;SDS011;68437;52.236;5.710;2023-09-30T06:08:49;42.42;;;19.98;;
18501;SDS011;68437;52.236;5.710;2023-09-30T06:11:16;43.80;;;20.40;;
18501;SDS011;68437;52.236;5.710;2023-09-30T06:13:44;42.78;;;21.00;;
18501;SDS011;68437;52.236;5.710;2023-09-30T06:16:12;44.35;;;20.50;;
18501;SDS011;68437;52.236;5.710;2023-09-30T06:18:41;43.95;;;21.33;;
18501;SDS011;68437;52.236;5.710;2023-09-30T06:21:10;45.78;;;21.63;;
18501;SDS011;68437;52.236;5.710;2023-09-30T06:23:37;42.15;;;20.17;;
18501;SDS011;68437;52.236;5.710;2023-09-30T06:26:05;44.40;;;21.88;;
18501;SDS011;68437;52.236;5.710;2023-09-30T06:28:32;51.33;;;24.73;;
18501;SDS011;68437;52.236;5.710;2023-09-30T06:31:05;47.05;;;24.30;;
18501;SDS011;68437;52.236;5.710;2023-09-30T06:33:34;55.20;;;27.65;;
18501;SDS011;68437;52.236;5.710;2023-09-30T06:36:01;49.13;;;24.42;;
18501;SDS011;68437;52.236;5.710;2023-09-30T06:38:29;53.45;;;25.67;;
18501;SDS011;68437;52.236;5.710;2023-09-30T06:40:55;49.90;;;25.00;;
18501;SDS011;68437;52.236;5.710;2023-09-30T06:43:22;57.00;;;26.35;;
18501;SDS011;68437;52.236;5.710;2023-09-30T06:45:49;49.00;;;23.15;;
18501;SDS011;68437;52.236;5.710;2023-09-30T06:48:16;50.28;;;23.30;;
18501;SDS011;68437;52.236;5.710;2023-09-30T06:50:45;52.40;;;24.45;;
18501;SDS011;68437;52.236;5.710;2023-09-30T06:53:13;53.85;;;24.42;;
18501;SDS011;68437;52.236;5.710;2023-09-30T06:55:41;57.05;;;26.25;;
18501;SDS011;68437;52.236;5.710;2023-09-30T06:58:08;60.13;;;26.95;;
18501;SDS011;68437;52.236;5.710;2023-09-30T07:00:35;54.08;;;26.98;;
18501;SDS011;68437;52.236;5.710;2023-09-30T07:03:03;50.70;;;24.98;;
18501;SDS011;68437;52.236;5.710;2023-09-30T07:05:30;55.28;;;25.77;;
18501;SDS011;68437;52.236;5.710;2023-09-30T07:07:59;53.78;;;26.77;;
18501;SDS011;68437;52.236;5.710;2023-09-30T07:10:25;59.42;;;27.58;;
18501;SDS011;68437;52.236;5.710;2023-09-30T07:12:54;57.45;;;29.25;;
18501;SDS011;68437;52.236;5.710;2023-09-30T07:15:21;58.42;;;26.55;;
18501;SDS011;68437;52.236;5.710;2023-09-30T07:17:48;62.20;;;28.20;;
18501;SDS011;68437;52.236;5.710;2023-09-30T07:20:17;61.50;;;29.40;;
18501;SDS011;68437;52.236;5.710;2023-09-30T07:22:46;62.38;;;30.67;;
18501;SDS011;68437;52.236;5.710;2023-09-30T07:25:14;57.53;;;29.10;;
18501;SDS011;68437;52.236;5.710;2023-09-30T07:27:43;60.15;;;29.23;;
18501;SDS011;68437;52.236;5.710;2023-09-30T07:30:12;60.03;;;30.58;;
18501;SDS011;68437;52.236;5.710;2023-09-30T07:32:40;63.13;;;30.33;;
18501;SDS011;68437;52.236;5.710;2023-09-30T07:35:08;54.05;;;27.63;;
18501;SDS011;68437;52.236;5.710;2023-09-30T07:37:35;57.30;;;30.23;;
18501;SDS011;68437;52.236;5.710;2023-09-30T07:40:02;62.58;;;30.83;;
18501;SDS011;68437;52.236;5.710;2023-09-30T07:42:31;59.10;;;29.55;;
18501;SDS011;68437;52.236;5.710;2023-09-30T07:45:00;62.10;;;30.80;;
18501;SDS011;68437;52.236;5.710;2023-09-30T07:47:28;65.32;;;30.58;;
18501;SDS011;68437;52.236;5.710;2023-09-30T07:49:58;58.33;;;32.25;;
18501;SDS011;68437;52.236;5.710;2023-09-30T07:52:25;56.95;;;29.35;;
18501;SDS011;68437;52.236;5.710;2023-09-30T07:54:52;65.95;;;31.55;;
18501;SDS011;68437;52.236;5.710;2023-09-30T07:57:19;58.00;;;30.27;;
18501;SDS011;68437;52.236;5.710;2023-09-30T07:59:48;57.78;;;29.65;;
18501;SDS011;68437;52.236;5.710;2023-09-30T08:02:15;58.83;;;29.13;;
18501;SDS011;68437;52.236;5.710;2023-09-30T08:04:42;52.47;;;27.40;;
18501;SDS011;68437;52.236;5.710;2023-09-30T08:07:09;57.15;;;29.05;;
18501;SDS011;68437;52.236;5.710;2023-09-30T08:09:36;48.75;;;26.83;;
18501;SDS011;68437;52.236;5.710;2023-09-30T08:12:03;47.17;;;26.70;;
18501;SDS011;68437;52.236;5.710;2023-09-30T08:14:31;50.72;;;26.30;;
18501;SDS011;68437;52.236;5.710;2023-09-30T08:16:59;50.20;;;25.98;;
18501;SDS011;68437;52.236;5.710;2023-09-30T08:19:27;52.13;;;26.27;;
18501;SDS011;68437;52.236;5.710;2023-09-30T08:21:54;41.97;;;23.77;;
18501;SDS011;68437;52.236;5.710;2023-09-30T08:24:21;45.88;;;24.73;;
18501;SDS011;68437;52.236;5.710;2023-09-30T08:26:48;47.40;;;24.88;;
18501;SDS011;68437;52.236;5.710;2023-09-30T08:29:16;42.40;;;24.20;;
18501;SDS011;68437;52.236;5.710;2023-09-30T08:31:43;44.83;;;24.02;;
18501;SDS011;68437;52.236;5.710;2023-09-30T08:34:11;48.67;;;24.42;;
18501;SDS011;68437;52.236;5.710;2023-09-30T08:36:39;44.80;;;22.13;;
18501;SDS011;68437;52.236;5.710;2023-09-30T08:39:06;46.17;;;23.90;;
18501;SDS011;68437;52.236;5.710;2023-09-30T08:41:35;41.15;;;21.65;;
18501;SDS011;68437;52.236;5.710;2023-09-30T08:44:03;38.13;;;20.73;;
18501;SDS011;68437;52.236;5.710;2023-09-30T08:46:30;40.20;;;21.17;;
18501;SDS011;68437;52.236;5.710;2023-09-30T08:48:58;35.47;;;20.33;;
18501;SDS011;68437;52.236;5.710;2023-09-30T08:51:29;39.78;;;20.20;;
18501;SDS011;68437;52.236;5.710;2023-09-30T08:53:57;38.90;;;19.55;;
18501;SDS011;68437;52.236;5.710;2023-09-30T08:56:25;35.42;;;19.00;;
18501;SDS011;68437;52.236;5.710;2023-09-30T08:58:54;33.67;;;19.40;;
18501;SDS011;68437;52.236;5.710;2023-09-30T09:01:24;37.08;;;20.02;;
18501;SDS011;68437;52.236;5.710;2023-09-30T09:03:51;34.80;;;18.35;;
18501;SDS011;68437;52.236;5.710;2023-09-30T09:06:18;36.13;;;17.85;;
18501;SDS011;68437;52.236;5.710;2023-09-30T09:08:47;34.15;;;18.40;;
18501;SDS011;68437;52.236;5.710;2023-09-30T09:11:14;31.25;;;17.38;;
18501;SDS011;68437;52.236;5.710;2023-09-30T09:13:46;31.90;;;17.63;;
18501;SDS011;68437;52.236;5.710;2023-09-30T09:16:14;32.15;;;17.08;;
18501;SDS011;68437;52.236;5.710;2023-09-30T09:18:42;33.80;;;17.10;;
18501;SDS011;68437;52.236;5.710;2023-09-30T09:21:10;31.13;;;16.05;;
18501;SDS011;68437;52.236;5.710;2023-09-30T09:23:41;28.23;;;14.43;;
18501;SDS011;68437;52.236;5.710;2023-09-30T09:26:10;31.48;;;14.82;;
18501;SDS011;68437;52.236;5.710;2023-09-30T09:28:39;27.08;;;13.80;;
18501;SDS011;68437;52.236;5.710;2023-09-30T09:31:19;29.38;;;14.95;;
18501;SDS011;68437;52.236;5.710;2023-09-30T09:33:47;29.20;;;14.70;;
18501;SDS011;68437;52.236;5.710;2023-09-30T09:36:15;27.40;;;14.60;;
18501;SDS011;68437;52.236;5.710;2023-09-30T09:38:45;35.30;;;15.88;;
18501;SDS011;68437;52.236;5.710;2023-09-30T09:41:16;28.65;;;13.70;;
18501;SDS011;68437;52.236;5.710;2023-09-30T09:43:43;24.98;;;12.90;;
18501;SDS011;68437;52.236;5.710;2023-09-30T09:46:10;25.88;;;12.27;;
18501;SDS011;68437;52.236;5.710;2023-09-30T09:48:39;23.45;;;10.80;;
18501;SDS011;68437;52.236;5.710;2023-09-30T09:51:06;21.00;;;11.05;;
18501;SDS011;68437;52.236;5.710;2023-09-30T09:53:37;26.23;;;11.82;;
18501;SDS011;68437;52.236;5.710;2023-09-30T09:56:07;25.83;;;11.63;;
18501;SDS011;68437;52.236;5.710;2023-09-30T09:58:40;21.77;;;11.50;;
18501;SDS011;68437;52.236;5.710;2023-09-30T10:01:08;26.23;;;11.55;;
18501;SDS011;68437;52.236;5.710;2023-09-30T10:03:36;24.48;;;10.48;;
18501;SDS011;68437;52.236;5.710;2023-09-30T10:06:04;22.25;;;10.57;;
18501;SDS011;68437;52.236;5.710;2023-09-30T10:08:35;26.27;;;10.35;;
18501;SDS011;68437;52.236;5.710;2023-09-30T10:11:05;20.48;;;9.00;;
18501;SDS011;68437;52.236;5.710;2023-09-30T10:13:55;24.23;;;9.88;;
18501;SDS011;68437;52.236;5.710;2023-09-30T10:19:14;20.20;;;9.25;;
18501;SDS011;68437;52.236;5.710;2023-09-30T10:24:42;16.02;;;7.50;;
18501;SDS011;68437;52.236;5.710;2023-09-30T10:27:27;13.32;;;6.95;;
18501;SDS011;68437;52.236;5.710;2023-09-30T10:30:05;17.65;;;7.13;;
18501;SDS011;68437;52.236;5.710;2023-09-30T10:35:50;17.20;;;6.60;;
18501;SDS011;68437;52.236;5.710;2023-09-30T10:38:37;14.13;;;5.57;;
18501;SDS011;68437;52.236;5.710;2023-09-30T10:41:08;16.63;;;6.25;;
18501;SDS011;68437;52.236;5.710;2023-09-30T10:43:37;14.45;;;4.68;;
18501;SDS011;68437;52.236;5.710;2023-09-30T10:49:14;12.70;;;4.88;;
18501;SDS011;68437;52.236;5.710;2023-09-30T10:51:43;14.52;;;5.05;;
18501;SDS011;68437;52.236;5.710;2023-09-30T10:54:12;15.02;;;5.30;;
18501;SDS011;68437;52.236;5.710;2023-09-30T10:56:39;17.38;;;4.90;;
18501;SDS011;68437;52.236;5.710;2023-09-30T10:59:06;13.20;;;4.07;;
18501;SDS011;68437;52.236;5.710;2023-09-30T11:01:35;10.32;;;3.47;;
18501;SDS011;68437;52.236;5.710;2023-09-30T11:04:03;10.63;;;4.05;;
18501;SDS011;68437;52.236;5.710;2023-09-30T11:06:32;15.23;;;4.03;;
18501;SDS011;68437;52.236;5.710;2023-09-30T11:08:59;12.20;;;3.92;;
18501;SDS011;68437;52.236;5.710;2023-09-30T11:11:34;12.25;;;3.92;;
18501;SDS011;68437;52.236;5.710;2023-09-30T11:14:02;11.95;;;3.55;;
18501;SDS011;68437;52.236;5.710;2023-09-30T11:16:41;14.65;;;3.97;;
18501;SDS011;68437;52.236;5.710;2023-09-30T11:19:08;16.13;;;4.85;;
18501;SDS011;68437;52.236;5.710;2023-09-30T11:21:35;16.08;;;4.20;;
18501;SDS011;68437;52.236;5.710;2023-09-30T11:24:01;14.15;;;4.03;;
18501;SDS011;68437;52.236;5.710;2023-09-30T11:26:29;16.75;;;4.82;;
18501;SDS011;68437;52.236;5.710;2023-09-30T11:29:04;13.23;;;4.20;;
18501;SDS011;68437;52.236;5.710;2023-09-30T11:31:31;14.52;;;5.40;;
18501;SDS011;68437;52.236;5.710;2023-09-30T11:34:00;17.40;;;5.97;;
18501;SDS011;68437;52.236;5.710;2023-09-30T11:36:29;19.77;;;6.50;;
18501;SDS011;68437;52.236;5.710;2023-09-30T11:38:56;17.75;;;6.20;;
18501;SDS011;68437;52.236;5.710;2023-09-30T11:41:32;13.93;;;6.15;;
18501;SDS011;68437;52.236;5.710;2023-09-30T11:44:02;20.27;;;6.13;;
18501;SDS011;68437;52.236;5.710;2023-09-30T11:46:33;16.27;;;5.45;;
18501;SDS011;68437;52.236;5.710;2023-09-30T11:49:25;16.70;;;4.70;;
18501;SDS011;68437;52.236;5.710;2023-09-30T11:51:53;14.93;;;4.70;;
18501;SDS011;68437;52.236;5.710;2023-09-30T11:54:20;11.60;;;3.92;;
18501;SDS011;68437;52.236;5.710;2023-09-30T11:56:48;13.10;;;3.78;;
18501;SDS011;68437;52.236;5.710;2023-09-30T11:59:15;12.40;;;3.50;;
18501;SDS011;68437;52.236;5.710;2023-09-30T12:01:44;12.50;;;3.88;;
18501;SDS011;68437;52.236;5.710;2023-09-30T12:04:13;13.80;;;3.70;;
18501;SDS011;68437;52.236;5.710;2023-09-30T12:06:43;14.70;;;3.75;;
18501;SDS011;68437;52.236;5.710;2023-09-30T12:09:11;10.93;;;3.22;;
18501;SDS011;68437;52.236;5.710;2023-09-30T12:11:39;10.38;;;3.67;;
18501;SDS011;68437;52.236;5.710;2023-09-30T12:14:09;13.25;;;3.58;;
18501;SDS011;68437;52.236;5.710;2023-09-30T12:16:36;11.88;;;3.70;;
18501;SDS011;68437;52.236;5.710;2023-09-30T12:19:03;14.40;;;3.85;;
18501;SDS011;68437;52.236;5.710;2023-09-30T12:21:31;14.63;;;3.88;;
18501;SDS011;68437;52.236;5.710;2023-09-30T12:24:00;15.30;;;4.22;;
18501;SDS011;68437;52.236;5.710;2023-09-30T12:26:28;12.27;;;3.85;;
18501;SDS011;68437;52.236;5.710;2023-09-30T12:28:55;12.55;;;3.75;;
18501;SDS011;68437;52.236;5.710;2023-09-30T12:31:23;11.43;;;3.72;;
18501;SDS011;68437;52.236;5.710;2023-09-30T12:33:50;10.98;;;4.10;;
18501;SDS011;68437;52.236;5.710;2023-09-30T12:36:17;13.45;;;4.00;;
18501;SDS011;68437;52.236;5.710;2023-09-30T12:38:44;10.27;;;3.85;;
18501;SDS011;68437;52.236;5.710;2023-09-30T12:41:12;13.50;;;4.38;;
18501;SDS011;68437;52.236;5.710;2023-09-30T12:43:40;14.85;;;4.22;;
18501;SDS011;68437;52.236;5.710;2023-09-30T12:46:07;19.92;;;4.30;;
18501;SDS011;68437;52.236;5.710;2023-09-30T12:48:34;12.10;;;4.40;;
18501;SDS011;68437;52.236;5.710;2023-09-30T12:51:03;15.13;;;4.30;;
18501;SDS011;68437;52.236;5.710;2023-09-30T12:53:31;12.20;;;3.70;;
18501;SDS011;68437;52.236;5.710;2023-09-30T12:55:59;12.80;;;4.18;;
18501;SDS011;68437;52.236;5.710;2023-09-30T12:58:27;12.02;;;4.05;;
18501;SDS011;68437;52.236;5.710;2023-09-30T13:00:54;10.85;;;4.10;;
18501;SDS011;68437;52.236;5.710;2023-09-30T13:03:21;10.73;;;3.65;;
18501;SDS011;68437;52.236;5.710;2023-09-30T13:05:48;15.02;;;3.78;;
18501;SDS011;68437;52.236;5.710;2023-09-30T13:08:15;13.57;;;3.58;;
18501;SDS011;68437;52.236;5.710;2023-09-30T13:10:42;11.27;;;3.70;;
18501;SDS011;68437;52.236;5.710;2023-09-30T13:13:10;11.38;;;3.70;;
18501;SDS011;68437;52.236;5.710;2023-09-30T13:15:38;13.45;;;3.40;;
18501;SDS011;68437;52.236;5.710;2023-09-30T13:18:06;12.90;;;3.50;;
18501;SDS011;68437;52.236;5.710;2023-09-30T13:20:33;12.40;;;3.60;;
18501;SDS011;68437;52.236;5.710;2023-09-30T13:23:00;15.23;;;4.15;;
18501;SDS011;68437;52.236;5.710;2023-09-30T13:25:28;13.35;;;3.83;;
18501;SDS011;68437;52.236;5.710;2023-09-30T13:27:55;13.48;;;4.18;;
18501;SDS011;68437;52.236;5.710;2023-09-30T13:30:22;10.75;;;3.80;;
18501;SDS011;68437;52.236;5.710;2023-09-30T13:32:50;15.68;;;3.95;;
18501;SDS011;68437;52.236;5.710;2023-09-30T13:35:17;13.05;;;4.10;;
18501;SDS011;68437;52.236;5.710;2023-09-30T13:37:44;14.55;;;4.13;;
18501;SDS011;68437;52.236;5.710;2023-09-30T13:40:11;14.95;;;4.30;;
18501;SDS011;68437;52.236;5.710;2023-09-30T13:42:38;15.50;;;4.65;;
18501;SDS011;68437;52.236;5.710;2023-09-30T13:45:06;17.88;;;4.47;;
18501;SDS011;68437;52.236;5.710;2023-09-30T13:47:34;12.00;;;4.03;;
18501;SDS011;68437;52.236;5.710;2023-09-30T13:50:03;18.25;;;4.97;;
18501;SDS011;68437;52.236;5.710;2023-09-30T13:52:32;13.18;;;4.07;;
18501;SDS011;68437;52.236;5.710;2023-09-30T13:54:59;16.38;;;4.30;;
18501;SDS011;68437;52.236;5.710;2023-09-30T13:57:27;12.88;;;3.78;;
18501;SDS011;68437;52.236;5.710;2023-09-30T13:59:53;13.25;;;3.75;;
18501;SDS011;68437;52.236;5.710;2023-09-30T14:02:20;12.15;;;3.40;;
18501;SDS011;68437;52.236;5.710;2023-09-30T14:04:47;10.73;;;3.17;;
18501;SDS011;68437;52.236;5.710;2023-09-30T14:07:16;13.57;;;3.70;;
18501;SDS011;68437;52.236;5.710;2023-09-30T14:09:44;14.05;;;3.50;;
18501;SDS011;68437;52.236;5.710;2023-09-30T14:12:11;11.73;;;3.60;;
18501;SDS011;68437;52.236;5.710;2023-09-30T14:14:37;15.48;;;3.88;;
18501;SDS011;68437;52.236;5.710;2023-09-30T14:17:04;15.27;;;3.58;;
18501;SDS011;68437;52.236;5.710;2023-09-30T14:19:35;13.35;;;4.18;;
18501;SDS011;68437;52.236;5.710;2023-09-30T14:22:02;11.63;;;3.63;;
18501;SDS011;68437;52.236;5.710;2023-09-30T14:24:31;13.88;;;3.72;;
18501;SDS011;68437;52.236;5.710;2023-09-30T14:26:59;12.85;;;3.35;;
18501;SDS011;68437;52.236;5.710;2023-09-30T14:29:26;10.30;;;3.20;;
18501;SDS011;68437;52.236;5.710;2023-09-30T14:31:53;9.02;;;3.05;;
18501;SDS011;68437;52.236;5.710;2023-09-30T14:34:20;10.13;;;3.10;;
18501;SDS011;68437;52.236;5.710;2023-09-30T14:36:46;13.07;;;3.15;;
18501;SDS011;68437;52.236;5.710;2023-09-30T14:39:14;12.80;;;4.35;;
18501;SDS011;68437;52.236;5.710;2023-09-30T14:41:42;15.38;;;6.10;;
18501;SDS011;68437;52.236;5.710;2023-09-30T14:44:09;14.30;;;6.30;;
18501;SDS011;68437;52.236;5.710;2023-09-30T14:46:37;17.15;;;5.15;;